Time;durP1;ratioP1;P1;durP2;ratioP2;P2;SDS_P1;SDS_P2;PMS_P1;PMS_P2;Temp;Humidity;BMP_temperature;BMP_pressure;BME280_temperature;BME280_humidity;BME280_pressure;Samples;Min_cycle;Max_cycle;Signal;HPM_P1;HPM_P2
2021/04/26 00:00:05;;;;;;;11.40;2.47;;;;;;;5.22;64.05;102522.00;5134202;28;20023;-39
2021/04/26 00:02:30;;;;;;;4.82;1.58;;;;;;;5.22;64.17;102522.00;5134577;28;20031;-39
2021/04/26 00:04:56;;;;;;;7.97;2.30;;;;;;;5.10;64.82;102520.53;5134838;28;20043;-39
2021/04/26 00:07:21;;;;;;;6.05;1.80;;;;;;;5.09;64.86;102503.63;5133786;28;20031;-38
2021/04/26 00:09:46;;;;;;;7.30;2.10;;;;;;;5.04;65.29;102513.13;5134173;28;20050;-39
2021/04/26 00:12:12;;;;;;;8.77;2.00;;;;;;;5.05;64.52;102499.56;5134322;28;20474;-38
2021/04/26 00:14:37;;;;;;;5.20;1.67;;;;;;;5.10;63.95;102491.88;5133730;28;20042;-39
2021/04/26 00:17:02;;;;;;;11.37;2.67;;;;;;;5.08;64.46;102485.00;5134047;28;20047;-38
2021/04/26 00:19:28;;;;;;;9.30;1.80;;;;;;;5.11;63.84;102498.94;5134412;28;20094;-39
2021/04/26 00:21:53;;;;;;;7.03;1.43;;;;;;;5.05;64.27;102491.50;5133450;28;20035;-39
2021/04/26 00:24:18;;;;;;;10.27;2.20;;;;;;;5.04;64.35;102497.88;5133845;28;20031;-39
2021/04/26 00:26:44;;;;;;;7.50;1.67;;;;;;;5.04;63.68;102497.03;5133968;28;20028;-39
2021/04/26 00:29:09;;;;;;;7.87;1.70;;;;;;;5.00;64.57;102488.44;5133618;28;20073;-39
2021/04/26 00:31:34;;;;;;;5.43;1.97;;;;;;;4.95;64.06;102492.59;5134162;28;20034;-39
2021/04/26 00:34:00;;;;;;;7.13;2.10;;;;;;;4.85;64.72;102480.09;5134200;28;20107;-38
2021/04/26 00:36:25;;;;;;;4.67;1.70;;;;;;;4.77;64.75;102493.41;5134176;28;20027;-38
2021/04/26 00:38:50;;;;;;;5.47;2.00;;;;;;;4.80;64.33;102487.75;5133944;28;20023;-38
2021/04/26 00:41:16;;;;;;;7.07;2.13;;;;;;;4.76;64.26;102483.69;5133809;28;20443;-38
2021/04/26 00:43:42;;;;;;;7.53;1.80;;;;;;;4.65;64.46;102487.44;5133483;28;20530;-38
2021/04/26 00:46:07;;;;;;;7.05;2.63;;;;;;;4.70;64.41;102488.84;5136247;27;20463;-38
2021/04/26 00:48:32;;;;;;;7.60;1.53;;;;;;;4.65;65.12;102481.25;5137218;27;20035;-38
2021/04/26 00:50:58;;;;;;;6.00;1.60;;;;;;;4.47;64.79;102480.38;5137104;27;20031;-38
2021/04/26 00:53:24;;;;;;;5.90;2.37;;;;;;;4.47;64.94;102481.22;5137134;27;20072;-39
2021/04/26 00:55:49;;;;;;;5.53;2.03;;;;;;;4.53;65.33;102477.09;5137412;27;20028;-39
2021/04/26 00:58:15;;;;;;;6.70;1.53;;;;;;;4.58;64.66;102469.44;5137308;27;20035;-39
2021/04/26 01:00:40;;;;;;;5.57;1.40;;;;;;;4.60;64.37;102472.81;5137358;27;20032;-38
2021/04/26 01:03:05;;;;;;;5.13;1.60;;;;;;;4.48;64.81;102468.66;5137124;27;20031;-38
2021/04/26 01:05:33;;;;;;;10.13;2.53;;;;;;;4.54;64.53;102468.06;5137375;27;20050;-38
2021/04/26 01:07:59;;;;;;;7.18;2.17;;;;;;;4.52;64.13;102462.00;5137029;27;20054;-39
2021/04/26 01:10:28;;;;;;;12.30;2.00;;;;;;;4.45;63.90;102451.06;5137545;27;20368;-38
2021/04/26 01:13:21;;;;;;;6.57;1.73;;;;;;;4.29;64.86;102451.72;5137015;27;20096;-39
2021/04/26 01:16:05;;;;;;;7.25;1.60;;;;;;;4.32;64.85;102454.09;5137152;27;20030;-38
2021/04/26 01:18:45;;;;;;;2.92;1.63;;;;;;;4.36;64.31;102446.63;5137314;27;20027;-38
2021/04/26 01:21:48;;;;;;;7.35;1.88;;;;;;;4.41;64.24;102446.16;5136547;27;20498;-39
2021/04/26 01:24:19;;;;;;;8.27;1.90;;;;;;;4.37;64.80;102437.59;5136738;27;20027;-39
2021/04/26 01:27:03;;;;;;;3.97;1.60;;;;;;;4.23;64.82;102433.59;5136379;27;20060;-38
2021/04/26 01:30:01;;;;;;;5.75;1.45;;;;;;;4.30;64.49;102439.19;5136437;27;20454;-38
2021/04/26 01:32:34;;;;;;;9.05;1.95;;;;;;;4.18;64.71;102435.88;5073235;28;20094;-39
2021/04/26 01:35:01;;;;;;;4.18;1.45;;;;;;;4.21;64.58;102432.06;5073240;28;20435;-38
2021/04/26 01:37:28;;;;;;;5.10;2.05;;;;;;;4.15;64.98;102425.47;5073615;28;20041;-39
2021/04/26 01:39:55;;;;;;;5.20;1.80;;;;;;;3.99;65.21;102430.63;5056564;28;20064;-38
2021/04/26 01:42:21;;;;;;;7.97;1.90;;;;;;;3.95;65.34;102431.91;5072768;28;20107;-38
2021/04/26 01:44:47;;;;;;;5.55;1.60;;;;;;;3.93;65.18;102429.38;5073363;28;20067;-38
2021/04/26 01:47:13;;;;;;;7.38;2.25;;;;;;;3.79;65.74;102429.88;5073012;28;20039;-38
2021/04/26 01:49:40;;;;;;;6.10;2.60;;;;;;;3.70;66.21;102423.56;5073504;28;20136;-39
2021/04/26 01:52:07;;;;;;;;;;;;;;;3.78;65.62;102429.03;5073351;28;20032;-39
2021/04/26 01:54:33;;;;;;;6.82;1.77;;;;;;;3.77;66.41;102429.19;5073172;28;19959;-38
2021/04/26 01:56:59;;;;;;;6.88;2.70;;;;;;;3.66;66.29;102424.88;5071717;28;20113;-39
2021/04/26 01:59:26;;;;;;;5.65;2.00;;;;;;;3.70;66.62;102430.75;5073046;28;20035;-39
2021/04/26 02:01:54;;;;;;;5.22;1.60;;;;;;;3.81;66.16;102426.06;5056351;28;20424;-39
2021/04/26 02:04:20;;;;;;;7.78;1.80;;;;;;;3.76;66.01;102428.34;5072461;28;20420;-39
2021/04/26 02:06:48;;;;;;;7.38;2.13;;;;;;;3.73;65.99;102435.81;5072697;28;20036;-39
2021/04/26 02:09:15;;;;;;;3.53;1.67;;;;;;;3.83;65.75;102431.28;5104469;27;20444;-39
2021/04/26 02:11:40;;;;;;;;;;;;;;;3.96;64.43;102430.94;5136350;27;20038;-39
2021/04/26 02:14:07;;;;;;;4.80;1.75;;;;;;;3.74;65.68;102424.97;5135741;27;19912;-39
2021/04/26 02:16:33;;;;;;;4.53;1.83;;;;;;;3.72;65.94;102434.97;5135832;27;20034;-38
2021/04/26 02:18:58;;;;;;;7.80;1.83;;;;;;;3.61;65.83;102427.13;5135883;27;20023;-39
2021/04/26 02:21:23;;;;;;;5.67;1.73;;;;;;;3.45;65.96;102422.41;5136532;27;20034;-39
2021/04/26 02:23:49;;;;;;;7.10;2.00;;;;;;;3.52;66.34;102420.00;5135831;27;20027;-39
2021/04/26 02:26:14;;;;;;;3.53;1.57;;;;;;;3.44;67.09;102415.38;5135658;27;20027;-38
2021/04/26 02:28:39;;;;;;;6.07;1.60;;;;;;;3.48;66.75;102422.13;5135549;27;20054;-38
2021/04/26 02:31:06;;;;;;;3.23;1.60;;;;;;;3.55;65.49;102409.00;5136085;27;20075;-38
2021/04/26 02:33:38;;;;;;;5.93;1.63;;;;;;;3.52;65.92;102410.16;5135393;27;20026;-38
2021/04/26 02:36:08;;;;;;;4.53;1.58;;;;;;;3.47;66.00;102406.22;5136247;27;20031;-38
2021/04/26 02:38:41;;;;;;;4.88;1.80;;;;;;;3.48;65.93;102410.59;5135558;27;20057;-38
2021/04/26 02:41:09;;;;;;;5.65;1.75;;;;;;;3.50;65.68;102409.44;5135773;27;20482;-38
2021/04/26 02:43:41;;;;;;;5.75;2.17;;;;;;;3.55;66.25;102401.81;5135185;27;20023;-38
2021/04/26 02:46:08;;;;;;;6.10;1.92;;;;;;;3.36;66.17;102402.72;5135784;27;20027;-38
2021/04/26 02:48:41;;;;;;;3.50;1.70;;;;;;;3.40;66.12;102402.44;5134801;27;20584;-38
2021/04/26 02:51:07;;;;;;;5.68;1.75;;;;;;;3.42;65.51;102401.31;5135217;27;20031;-38
2021/04/26 02:53:34;;;;;;;5.30;2.20;;;;;;;3.41;66.67;102388.91;5135000;27;20375;-38
2021/04/26 02:56:03;;;;;;;7.57;1.70;;;;;;;3.36;66.01;102400.03;5135354;27;20023;-38
2021/04/26 02:58:30;;;;;;;7.40;2.35;;;;;;;3.27;66.49;102392.03;5134612;27;20045;-38
2021/04/26 03:00:57;;;;;;;5.70;1.70;;;;;;;3.20;66.57;102383.78;5135279;27;20375;-38
2021/04/26 03:03:23;;;;;;;4.88;1.88;;;;;;;3.11;66.91;102381.97;5135123;27;20035;-39
2021/04/26 03:05:50;;;;;;;8.40;2.00;;;;;;;3.03;67.95;102379.19;5135310;27;20053;-38
2021/04/26 03:08:16;;;;;;;7.63;2.22;;;;;;;2.88;68.07;102370.78;5134069;27;20770;-38
2021/04/26 03:10:41;;;;;;;7.78;2.13;;;;;;;2.79;68.69;102374.31;5134805;27;20035;-38
2021/04/26 03:13:07;;;;;;;3.50;1.98;;;;;;;2.73;68.88;102364.16;5134840;27;20050;-39
2021/04/26 03:15:33;;;;;;;6.77;2.43;;;;;;;2.69;68.69;102370.81;5134912;27;20027;-38
2021/04/26 03:18:00;;;;;;;6.57;2.15;;;;;;;2.60;68.76;102372.50;5134186;27;20319;-38
2021/04/26 03:20:26;;;;;;;3.28;1.75;;;;;;;2.70;68.63;102362.63;5134444;27;20037;-38
2021/04/26 03:22:52;;;;;;;4.07;2.05;;;;;;;2.68;69.40;102358.41;5134234;27;20031;-38
2021/04/26 03:25:19;;;;;;;;;;;;;;;2.65;68.88;102358.72;5134674;27;20062;-38
2021/04/26 03:27:46;;;;;;;6.63;2.15;;;;;;;2.59;68.76;102354.78;5135090;27;19914;-38
2021/04/26 03:30:14;;;;;;;4.53;1.88;;;;;;;2.57;69.60;102360.25;5134766;27;20020;-38
2021/04/26 03:32:42;;;;;;;5.18;1.98;;;;;;;2.53;69.17;102356.16;5134365;27;20027;-38
2021/04/26 03:35:09;;;;;;;5.60;2.05;;;;;;;2.47;69.98;102355.91;5135162;27;20355;-38
2021/04/26 03:37:35;;;;;;;11.15;2.05;;;;;;;2.56;69.07;102352.38;5133994;27;20459;-39
2021/04/26 03:40:00;;;;;;;6.05;2.35;;;;;;;2.51;68.89;102349.31;5134380;27;20422;-38
2021/04/26 03:42:26;;;;;;;4.00;2.20;;;;;;;2.47;69.79;102347.91;5134282;27;20033;-39
2021/04/26 03:44:51;;;;;;;5.70;2.30;;;;;;;2.47;69.80;102351.41;5134534;28;20031;-38
2021/04/26 03:47:17;;;;;;;5.77;2.07;;;;;;;2.49;69.06;102351.25;5134555;28;20023;-38
2021/04/26 03:49:42;;;;;;;5.43;2.10;;;;;;;2.43;69.52;102349.16;5135086;28;20027;-38
2021/04/26 03:52:08;;;;;;;4.40;2.20;;;;;;;2.49;69.35;102348.59;5134207;28;20019;-39
2021/04/26 03:54:34;;;;;;;3.67;1.48;;;;;;;2.62;68.89;102348.31;5134314;28;20027;-39
2021/04/26 03:57:00;;;;;;;8.90;2.22;;;;;;;2.65;68.83;102340.84;5134137;28;20035;-39
2021/04/26 03:59:26;;;;;;;7.82;2.28;;;;;;;2.65;69.32;102345.38;5134405;28;20477;-39
2021/04/26 04:01:51;;;;;;;8.97;2.60;;;;;;;2.63;68.33;102340.13;5134908;28;20023;-39
2021/04/26 04:04:17;;;;;;;5.67;2.00;;;;;;;2.56;68.88;102342.53;5134134;28;20261;-39
2021/04/26 04:06:42;;;;;;;6.23;2.00;;;;;;;2.61;68.23;102336.78;5134582;28;20051;-39
2021/04/26 04:09:08;;;;;;;6.60;1.87;;;;;;;2.57;68.34;102343.38;5133859;27;20066;-39
2021/04/26 04:11:33;;;;;;;5.82;2.00;;;;;;;2.58;68.85;102335.22;5134151;28;20031;-39
2021/04/26 04:13:59;;;;;;;4.17;2.33;;;;;;;2.54;68.89;102338.34;5134607;28;20026;-39
2021/04/26 04:16:27;;;;;;;7.17;2.10;;;;;;;2.52;69.11;102334.97;5134791;28;20027;-39
2021/04/26 04:18:52;;;;;;;12.13;2.67;;;;;;;2.51;69.32;102341.28;5133865;27;20272;-39
2021/04/26 04:21:17;;;;;;;5.50;2.00;;;;;;;2.50;69.42;102340.44;5137117;27;20432;-39
2021/04/26 04:23:43;;;;;;;7.93;2.27;;;;;;;2.41;69.31;102340.47;5137656;27;20035;-39
2021/04/26 04:26:08;;;;;;;8.33;2.37;;;;;;;2.33;69.60;102336.66;5137940;27;20027;-39
2021/04/26 04:28:35;;;;;;;3.07;1.80;;;;;;;2.27;69.71;102336.38;5138159;27;20065;-38
2021/04/26 04:31:00;;;;;;;;;;;;;;;2.38;68.97;102335.38;5138231;27;20114;-38
2021/04/26 04:33:25;;;;;;;6.60;2.10;;;;;;;2.12;70.69;102335.94;5138233;27;19965;-38
2021/04/26 04:35:51;;;;;;;4.70;2.20;;;;;;;2.12;71.10;102341.28;5137491;27;20463;-39
2021/04/26 04:38:17;;;;;;;5.90;2.33;;;;;;;2.12;70.82;102343.94;5138076;27;20037;-38
2021/04/26 04:40:43;;;;;;;6.47;2.20;;;;;;;2.15;71.06;102341.00;5137558;27;20463;-38
2021/04/26 04:43:08;;;;;;;4.13;2.10;;;;;;;2.13;71.15;102342.97;5137204;27;20058;-38
2021/04/26 04:45:33;;;;;;;4.97;2.10;;;;;;;2.14;70.66;102327.78;5137378;27;20073;-38
2021/04/26 04:47:59;;;;;;;7.00;2.20;;;;;;;2.24;70.47;102339.31;5137876;27;20023;-38
2021/04/26 04:50:25;;;;;;;4.05;2.13;;;;;;;2.19;70.51;102331.72;5137299;27;20031;-38
2021/04/26 04:52:50;;;;;;;5.00;2.10;;;;;;;2.25;70.96;102330.34;5137282;27;20027;-38
2021/04/26 04:55:16;;;;;;;6.27;2.40;;;;;;;2.40;69.88;102328.09;5137788;27;20374;-38
2021/04/26 04:57:41;;;;;;;5.63;2.40;;;;;;;2.45;69.45;102340.03;5137120;27;20110;-38
2021/04/26 05:00:08;;;;;;;5.03;2.03;;;;;;;2.50;69.34;102334.28;5136818;27;20386;-38
2021/04/26 05:02:33;;;;;;;8.05;2.28;;;;;;;2.57;69.27;102332.69;5136712;27;20027;-38
2021/04/26 05:04:59;;;;;;;5.87;2.67;;;;;;;2.48;69.89;102328.22;5137427;27;20507;-39
2021/04/26 05:07:24;;;;;;;5.23;2.20;;;;;;;2.50;69.36;102324.44;5137120;27;20312;-38
2021/04/26 05:09:50;;;;;;;6.82;2.30;;;;;;;2.48;70.26;102325.53;5137462;27;20039;-38
2021/04/26 05:12:15;;;;;;;7.90;2.37;;;;;;;2.53;69.78;102326.78;5136809;27;20027;-38
2021/04/26 05:14:42;;;;;;;8.53;2.43;;;;;;;2.59;69.19;102325.41;5136801;27;20027;-38
2021/04/26 05:17:08;;;;;;;6.00;2.58;;;;;;;2.75;69.39;102325.66;5136524;27;20486;-38
2021/04/26 05:19:33;;;;;;;5.07;3.08;;;;;;;2.87;68.28;102326.31;5136896;27;20023;-38
2021/04/26 05:22:00;;;;;;;5.93;2.13;;;;;;;3.03;68.49;102326.56;5136604;27;20522;-38
2021/04/26 05:24:25;;;;;;;5.75;2.10;;;;;;;3.15;67.91;102329.06;5137601;27;20015;-38
2021/04/26 05:26:51;;;;;;;4.83;2.20;;;;;;;3.39;67.26;102331.22;5136901;27;20386;-38
2021/04/26 05:29:16;;;;;;;8.07;2.30;;;;;;;3.32;67.60;102325.63;5136994;27;20027;-38
2021/04/26 05:31:41;;;;;;;4.27;2.20;;;;;;;3.34;67.37;102329.84;5136762;27;20031;-39
2021/04/26 05:34:07;;;;;;;5.60;2.80;;;;;;;3.44;66.49;102331.63;5137159;27;20379;-38
2021/04/26 05:36:32;;;;;;;4.37;2.07;;;;;;;3.39;66.89;102328.56;5136839;27;20072;-39
2021/04/26 05:38:59;;;;;;;7.23;2.30;;;;;;;3.43;66.64;102328.13;5136093;27;20453;-38
2021/04/26 05:41:25;;;;;;;6.60;2.20;;;;;;;3.70;66.11;102329.09;5137230;27;20019;-38
2021/04/26 05:43:50;;;;;;;5.43;2.37;;;;;;;3.84;65.83;102331.25;5136594;27;20079;-39
2021/04/26 05:46:15;;;;;;;5.27;2.33;;;;;;;3.90;65.88;102321.78;5136449;27;20023;-39
2021/04/26 05:48:41;;;;;;;5.27;1.87;;;;;;;3.91;65.77;102332.34;5136307;27;20027;-39
2021/04/26 05:51:06;;;;;;;4.17;2.23;;;;;;;3.91;65.36;102326.16;5136616;27;20027;-39
2021/04/26 05:53:31;;;;;;;6.43;2.13;;;;;;;4.00;65.01;102318.06;5135970;27;20031;-39
2021/04/26 05:55:57;;;;;;;4.57;2.10;;;;;;;4.02;65.07;102317.91;5136806;27;20023;-39
2021/04/26 05:58:23;;;;;;;5.77;2.20;;;;;;;4.10;65.01;102323.34;5136634;27;20026;-39
2021/04/26 06:00:48;;;;;;;4.53;2.40;;;;;;;4.17;64.66;102318.22;5136884;27;20106;-39
2021/04/26 06:03:14;;;;;;;4.13;1.93;;;;;;;4.19;64.65;102313.53;5136292;27;20557;-39
2021/04/26 06:05:39;;;;;;;7.27;2.70;;;;;;;4.32;64.50;102304.13;5136624;27;20405;-40
2021/04/26 06:08:04;;;;;;;4.10;2.20;;;;;;;4.36;64.68;102313.53;5136182;27;20027;-40
2021/04/26 06:10:30;;;;;;;6.40;2.60;;;;;;;4.32;64.77;102314.84;5135754;27;20060;-39
2021/04/26 06:12:55;;;;;;;6.43;2.47;;;;;;;4.39;64.21;102305.22;5136364;27;20455;-39
2021/04/26 06:15:23;;;;;;;10.13;2.07;;;;;;;4.48;63.73;102314.13;5135725;27;20063;-40
2021/04/26 06:17:48;;;;;;;5.90;2.17;;;;;;;4.55;63.78;102309.00;5135389;27;20031;-39
2021/04/26 06:20:14;;;;;;;4.50;2.50;;;;;;;4.64;63.75;102316.13;5135605;27;20380;-38
2021/04/26 06:22:39;;;;;;;5.43;2.58;;;;;;;4.66;63.76;102314.13;5134903;27;20427;-38
2021/04/26 06:25:05;;;;;;;5.87;2.47;;;;;;;4.65;63.44;102312.44;5135712;27;20474;-39
2021/04/26 06:27:30;;;;;;;7.70;3.00;;;;;;;4.59;63.90;102316.59;5135522;27;20504;-39
2021/04/26 06:29:56;;;;;;;5.47;2.67;;;;;;;4.56;63.88;102308.84;5135832;27;20042;-39
2021/04/26 06:32:23;;;;;;;3.90;2.13;;;;;;;4.62;63.04;102310.06;5135668;27;20062;-40
2021/04/26 06:34:49;;;;;;;5.95;2.30;;;;;;;4.79;62.98;102311.88;5135183;27;20023;-39
2021/04/26 06:37:15;;;;;;;8.18;2.40;;;;;;;4.88;62.42;102316.28;5135423;27;20038;-38
2021/04/26 06:39:40;;;;;;;7.27;2.50;;;;;;;4.99;62.51;102312.50;5135309;27;20023;-38
2021/04/26 06:42:06;;;;;;;5.57;2.43;;;;;;;5.06;62.24;102307.34;5135200;27;20031;-38
2021/04/26 06:44:31;;;;;;;7.03;2.70;;;;;;;5.14;61.63;102300.19;5135574;27;20020;-38
2021/04/26 06:46:56;;;;;;;9.70;2.43;;;;;;;5.28;62.36;102312.16;5135377;27;20067;-39
2021/04/26 06:49:27;;;;;;;6.83;2.43;;;;;;;5.33;61.55;102309.84;5134934;27;20027;-39
2021/04/26 06:51:52;;;;;;;5.43;2.08;;;;;;;5.32;61.18;102304.59;5135466;27;20035;-39
2021/04/26 06:54:19;;;;;;;8.03;2.43;;;;;;;5.41;61.43;102295.59;5135267;27;20034;-39
2021/04/26 06:56:45;;;;;;;6.00;2.55;;;;;;;5.48;61.01;102301.19;5135122;27;20031;-39
2021/04/26 06:59:11;;;;;;;4.88;2.40;;;;;;;5.58;60.83;102299.19;5134748;27;20031;-39
2021/04/26 07:01:36;;;;;;;4.90;2.57;;;;;;;5.58;60.35;102293.84;5135247;27;20050;-39
2021/04/26 07:04:01;;;;;;;4.97;2.50;;;;;;;5.66;60.25;102292.03;5134911;27;20080;-39
2021/04/26 07:06:27;;;;;;;5.97;2.57;;;;;;;5.75;60.24;102292.03;5134997;27;20483;-39
2021/04/26 07:08:52;;;;;;;10.20;2.77;;;;;;;5.88;60.07;102292.41;5135363;27;20142;-40
2021/04/26 07:11:18;;;;;;;6.10;2.80;;;;;;;5.82;59.65;102291.22;5135108;27;20076;-39
2021/04/26 07:13:43;;;;;;;6.47;2.43;;;;;;;6.03;60.30;102285.41;5135010;27;20065;-40
2021/04/26 07:16:08;;;;;;;4.63;2.10;;;;;;;6.18;59.11;102288.28;5134710;27;20023;-39
2021/04/26 07:18:34;;;;;;;6.10;2.53;;;;;;;6.29;58.28;102282.56;5135436;27;20027;-39
2021/04/26 07:20:59;;;;;;;4.43;2.10;;;;;;;6.45;58.26;102279.06;5134928;27;20031;-40
2021/04/26 07:23:24;;;;;;;9.23;2.40;;;;;;;6.50;58.59;102281.22;5134627;27;20034;-40
2021/04/26 07:25:50;;;;;;;5.33;2.40;;;;;;;6.71;58.26;102277.00;5134651;27;20030;-39
2021/04/26 07:28:15;;;;;;;6.73;2.33;;;;;;;6.74;57.06;102275.00;5134549;27;20023;-39
2021/04/26 07:30:41;;;;;;;5.27;2.27;;;;;;;6.88;56.91;102267.06;5134555;27;20459;-40
2021/04/26 07:33:06;;;;;;;8.50;2.30;;;;;;;6.95;56.02;102281.47;5134471;27;20042;-39
2021/04/26 07:35:32;;;;;;;7.67;2.37;;;;;;;7.10;56.00;102278.09;5135327;27;20015;-40
2021/04/26 07:37:57;;;;;;;5.63;2.42;;;;;;;7.25;56.51;102270.97;5134647;27;20776;-40
2021/04/26 07:40:22;;;;;;;3.87;2.20;;;;;;;7.33;55.68;102278.19;5134333;27;20360;-40
2021/04/26 07:42:48;;;;;;;5.90;2.63;;;;;;;7.46;56.06;102268.50;5134388;27;20030;-40
2021/04/26 07:45:19;;;;;;;7.83;2.40;;;;;;;7.54;55.46;102266.81;5134302;28;20139;-40
2021/04/26 07:47:45;;;;;;;5.55;2.38;;;;;;;7.63;55.58;102260.38;5134487;28;20031;-40
2021/04/26 07:50:11;;;;;;;;;;;;;;;7.83;55.37;102264.28;5135540;28;20027;-40
2021/04/26 07:52:36;;;;;;;4.78;2.17;;;;;;;7.78;53.81;102268.53;5134218;27;19959;-40
2021/04/26 07:55:03;;;;;;;3.60;2.00;;;;;;;7.86;54.50;102258.53;5135680;27;20034;-39
2021/04/26 07:57:28;;;;;;;;;;;;;;;8.10;55.98;102265.63;5138750;27;20479;-39
2021/04/26 07:59:53;;;;;;;7.38;1.90;;;;;;;8.39;54.71;102261.34;5139088;27;19958;-39
2021/04/26 08:02:19;;;;;;;3.13;1.70;;;;;;;8.30;52.34;102257.03;5138400;27;20052;-40
2021/04/26 08:04:44;;;;;;;4.50;2.53;;;;;;;8.30;53.25;102248.94;5136483;27;20031;-39
2021/04/26 08:07:09;;;;;;;4.27;2.50;;;;;;;8.15;51.77;102257.81;5139577;27;20051;-40
2021/04/26 08:09:35;;;;;;;6.43;2.47;;;;;;;8.22;51.70;102258.75;5138361;27;20043;-40
2021/04/26 08:12:00;;;;;;;6.33;2.20;;;;;;;8.32;52.23;102258.50;5138042;27;20384;-39
2021/04/26 08:14:25;;;;;;;5.10;2.23;;;;;;;8.36;51.04;102259.88;5138578;27;20479;-39
2021/04/26 08:16:51;;;;;;;4.43;2.30;;;;;;;8.42;50.57;102258.28;5138186;27;20054;-39
2021/04/26 08:19:16;;;;;;;6.93;2.27;;;;;;;8.58;52.15;102257.28;5138673;27;20050;-39
2021/04/26 08:21:42;;;;;;;5.40;2.42;;;;;;;8.72;52.44;102256.47;5139123;27;20333;-39
2021/04/26 08:24:07;;;;;;;6.47;2.70;;;;;;;8.77;49.71;102252.22;5137776;27;20019;-39
2021/04/26 08:26:33;;;;;;;5.43;2.20;;;;;;;9.04;51.28;102241.81;5138262;27;20069;-39
2021/04/26 08:28:58;;;;;;;4.40;2.50;;;;;;;9.18;50.99;102248.22;5137692;27;20031;-39
2021/04/26 08:31:23;;;;;;;6.13;2.30;;;;;;;9.29;49.06;102240.47;5137974;27;20525;-39
2021/04/26 08:33:49;;;;;;;6.03;2.67;;;;;;;9.02;47.70;102238.44;5137829;27;20033;-39
2021/04/26 08:36:14;;;;;;;7.13;2.70;;;;;;;9.23;48.34;102243.94;5138325;27;20037;-39
2021/04/26 08:38:40;;;;;;;5.80;2.40;;;;;;;9.38;48.09;102235.81;5137636;27;20042;-39
2021/04/26 08:41:12;;;;;;;6.18;2.63;;;;;;;9.47;47.80;102237.38;5138497;27;20023;-39
2021/04/26 08:43:38;;;;;;;6.03;2.50;;;;;;;9.66;47.87;102226.97;5137641;27;20047;-39
2021/04/26 08:46:03;;;;;;;8.65;2.58;;;;;;;9.67;47.04;102225.97;5137402;27;20169;-39
2021/04/26 08:48:29;;;;;;;4.60;2.17;;;;;;;9.75;46.95;102229.38;5137532;27;20099;-39
2021/04/26 08:50:54;;;;;;;4.50;2.30;;;;;;;9.66;46.25;102232.38;5138441;27;20028;-39
2021/04/26 08:53:20;;;;;;;3.10;2.10;;;;;;;9.82;46.47;102229.44;5137444;27;20072;-39
2021/04/26 08:55:45;;;;;;;7.13;2.40;;;;;;;9.96;45.30;102225.84;5137226;27;20029;-39
2021/04/26 08:58:10;;;;;;;6.43;2.33;;;;;;;10.09;45.25;102224.28;5137571;27;20038;-39
2021/04/26 09:00:36;;;;;;;6.97;2.07;;;;;;;10.39;45.44;102216.88;5137854;27;20027;-39
2021/04/26 09:03:04;;;;;;;4.00;2.13;;;;;;;10.58;45.63;102229.72;5136949;27;20031;-39
2021/04/26 09:05:36;;;;;;;5.97;2.53;;;;;;;10.58;45.08;102211.59;5135565;27;20121;-39
2021/04/26 09:08:07;;;;;;;7.07;2.35;;;;;;;10.47;46.14;102209.47;5137950;27;20081;-39
2021/04/26 09:10:53;;;;;;;8.00;2.50;;;;;;;10.55;44.06;102209.31;5137623;27;20027;-39
2021/04/26 09:13:24;;;;;;;8.27;2.92;;;;;;;10.40;42.77;102205.88;5137071;27;20019;-39
2021/04/26 09:15:51;;;;;;;4.60;2.33;;;;;;;10.55;43.15;102203.06;5136602;27;20023;-39
2021/04/26 09:18:17;;;;;;;4.20;2.17;;;;;;;10.82;41.92;102201.34;5137088;27;20038;-39
2021/04/26 09:20:42;;;;;;;3.80;2.13;;;;;;;10.82;42.06;102196.78;5136689;27;20399;-39
2021/04/26 09:23:07;;;;;;;5.57;2.17;;;;;;;10.90;40.41;102195.78;5137006;27;20030;-39
2021/04/26 09:25:34;;;;;;;3.17;2.07;;;;;;;10.84;39.12;102183.06;5136731;27;20106;-39
2021/04/26 09:28:09;;;;;;;5.35;2.05;;;;;;;10.94;39.75;102196.22;5136296;27;20023;-39
2021/04/26 09:30:44;;;;;;;5.53;2.80;;;;;;;10.98;40.41;102187.50;5137027;27;20113;-39
2021/04/26 09:33:32;;;;;;;4.22;2.10;;;;;;;11.23;41.45;102187.81;5137106;27;20023;-39
2021/04/26 09:36:00;;;;;;;3.58;1.90;;;;;;;11.36;39.80;102178.91;5136500;27;20479;-39
2021/04/26 09:38:31;;;;;;;3.00;1.70;;;;;;;11.50;39.68;102180.59;5136344;27;20356;-39
2021/04/26 09:41:17;;;;;;;3.40;1.90;;;;;;;11.60;39.09;102183.75;5136269;27;20030;-39
2021/04/26 09:43:46;;;;;;;3.67;2.10;;;;;;;11.55;38.70;102172.69;5136637;27;20031;-39
2021/04/26 09:46:12;;;;;;;6.50;2.05;;;;;;;11.63;38.51;102174.38;5136728;27;20031;-39
2021/04/26 09:48:38;;;;;;;4.85;2.25;;;;;;;11.79;38.58;102173.16;5136607;27;20031;-39
2021/04/26 09:51:09;;;;;;;2.63;2.10;;;;;;;12.00;39.39;102154.00;5136752;27;20459;-39
2021/04/26 09:53:40;;;;;;;8.30;2.33;;;;;;;11.94;38.15;102162.97;5136402;27;20383;-39
2021/04/26 09:56:25;;;;;;;3.25;2.13;;;;;;;12.10;38.81;102159.00;5136269;27;20027;-39
2021/04/26 09:58:52;;;;;;;4.45;2.00;;;;;;;12.21;37.67;102150.25;5136335;27;20027;-39
2021/04/26 10:01:18;;;;;;;4.97;2.63;;;;;;;12.16;37.35;102154.66;5136160;27;20023;-39
2021/04/26 10:03:44;;;;;;;;;;;;;;;12.28;38.85;102151.09;5136716;27;20023;-39
2021/04/26 10:06:13;;;;;;;5.90;2.00;;;;;;;12.23;38.91;102150.03;5135842;27;20282;-39
2021/04/26 10:08:38;;;;;;;4.85;2.25;;;;;;;12.06;38.04;102147.78;5136191;27;20119;-39
2021/04/26 10:11:04;;;;;;;4.93;2.20;;;;;;;12.31;38.58;102145.25;5136209;27;20451;-39
2021/04/26 10:13:32;;;;;;;5.03;2.63;;;;;;;12.48;36.11;102145.63;5135501;27;20023;-39
2021/04/26 10:16:03;;;;;;;5.90;2.33;;;;;;;12.49;35.63;102143.72;5136090;27;20038;-39
2021/04/26 10:18:40;;;;;;;4.75;2.17;;;;;;;12.56;35.86;102133.72;5134409;27;20023;-39
2021/04/26 10:21:17;;;;;;;;;;;;;;;12.87;37.48;102133.81;5136481;27;20080;-39
2021/04/26 10:23:44;;;;;;;4.45;1.92;;;;;;;12.99;35.89;102127.72;5135726;27;19915;-40
2021/04/26 10:26:41;;;;;;;3.83;2.00;;;;;;;13.06;36.70;102120.38;5135643;27;20128;-39
2021/04/26 10:29:19;;;;;;;5.05;2.47;;;;;;;13.13;36.12;102111.16;5135574;27;20073;-39
2021/04/26 10:31:56;;;;;;;3.67;2.42;;;;;;;13.04;35.92;102117.88;5135499;27;20031;-39
2021/04/26 10:34:23;;;;;;;6.38;2.38;;;;;;;12.86;36.63;102101.47;5135975;27;20363;-40
2021/04/26 10:36:53;;;;;;;8.68;2.30;;;;;;;13.06;35.44;102099.47;5135492;27;20426;-40
2021/04/26 10:39:20;;;;;;;6.75;2.60;;;;;;;13.17;34.73;102094.41;5135473;27;20023;-40
2021/04/26 10:41:49;;;;;;;5.55;2.60;;;;;;;13.04;33.85;102107.00;5135321;27;20027;-39
2021/04/26 10:44:15;;;;;;;5.85;3.00;;;;;;;13.03;34.41;102094.50;5135268;27;20364;-39
2021/04/26 10:46:41;;;;;;;3.95;2.33;;;;;;;13.13;35.40;102089.44;5135482;27;20068;-40
2021/04/26 10:49:06;;;;;;;4.10;2.40;;;;;;;13.38;34.57;102092.22;5135476;27;20493;-40
2021/04/26 10:51:36;;;;;;;5.55;2.35;;;;;;;13.75;34.06;102080.66;5136252;27;20451;-40
2021/04/26 10:54:03;;;;;;;5.53;2.17;;;;;;;13.86;34.12;102082.66;5135121;27;20027;-40
2021/04/26 10:56:30;;;;;;;3.63;2.25;;;;;;;13.64;32.58;102087.63;5134832;27;20028;-40
2021/04/26 10:59:16;;;;;;;6.18;2.20;;;;;;;13.35;33.69;102075.53;5134573;27;20019;-40
2021/04/26 11:01:49;;;;;;;4.15;2.00;;;;;;;13.58;34.27;102070.34;5127172;27;20039;-40
2021/04/26 11:04:15;;;;;;;3.85;2.47;;;;;;;13.88;34.20;102064.22;5134578;27;20403;-40
2021/04/26 11:06:40;;;;;;;5.68;2.30;;;;;;;13.57;34.05;102062.41;5135344;27;20050;-40
2021/04/26 11:09:15;;;;;;;4.68;2.13;;;;;;;13.75;33.62;102058.91;5134857;27;20383;-39
2021/04/26 11:11:52;;;;;;;5.15;2.58;;;;;;;13.87;33.50;102040.81;5135562;27;20355;-40
2021/04/26 11:14:19;;;;;;;;;;;;;;;13.57;34.38;102051.53;5136011;27;20031;-40
2021/04/26 11:17:03;;;;;;;6.47;2.47;;;;;;;13.33;35.32;102051.31;5134679;27;19916;-40
2021/04/26 11:19:30;;;;;;;6.97;3.50;;;;;;;13.44;36.31;102040.78;5135338;27;20404;-40
2021/04/26 11:21:57;;;;;;;5.47;2.60;;;;;;;13.40;33.93;102043.09;5135450;27;20023;-40
2021/04/26 11:24:26;;;;;;;6.82;2.60;;;;;;;13.61;37.32;102031.81;5134799;27;20377;-39
2021/04/26 11:27:10;;;;;;;3.80;2.60;;;;;;;13.80;37.14;102027.28;5134836;27;20023;-39
2021/04/26 11:29:55;;;;;;;8.00;2.60;;;;;;;13.92;36.06;102027.38;5134362;27;20027;-40
2021/04/26 11:32:22;;;;;;;4.93;2.47;;;;;;;14.02;34.42;102011.38;5134881;27;20491;-40
2021/04/26 11:34:47;;;;;;;7.35;2.40;;;;;;;14.00;32.75;102018.91;5134270;27;20023;-40